Time;durP1;ratioP1;P1;durP2;ratioP2;P2;SDS_P1;SDS_P2;PMS_P1;PMS_P2;Temp;Humidity;BMP_temperature;BMP_pressure;BME280_temperature;BME280_humidity;BME280_pressure;Samples;Min_cycle;Max_cycle;Signal;HPM_P1;HPM_P2
2022/11/06 00:01:55;;;;;;;30.60;13.80;;;;;;;;;;1942887;74;26262;-79
2022/11/06 00:04:24;;;;;;;30.20;13.30;;;;;;;;;;1942457;74;26285;-79
2022/11/06 00:06:54;;;;;;;30.00;14.97;;;;;;;;;;1911324;73;26353;-80
2022/11/06 00:09:22;;;;;;;34.70;22.97;;;;;;;;;;1925589;74;26224;-80
2022/11/06 00:11:52;;;;;;;30.30;20.23;;;;;;;;;;1873747;75;26227;-80
2022/11/06 00:14:22;;;;;;;30.30;17.00;;;;;;;;;;1941987;74;26227;-80
2022/11/06 00:16:52;;;;;;;29.80;18.63;;;;;;;;;;1911283;75;26624;-79
2022/11/06 00:19:21;;;;;;;41.10;28.20;;;;;;;;;;1913508;75;26227;-79
2022/11/06 00:21:51;;;;;;;36.67;23.73;;;;;;;;;;1913359;75;26203;-79
2022/11/06 00:24:19;;;;;;;33.50;24.63;;;;;;;;;;1913445;75;26189;-79
2022/11/06 00:26:48;;;;;;;32.13;17.70;;;;;;;;;;1927273;74;26341;-79
2022/11/06 00:29:18;;;;;;;27.63;18.70;;;;;;;;;;1894057;74;26253;-79
2022/11/06 00:31:49;;;;;;;31.17;17.80;;;;;;;;;;1875752;75;26310;-79
2022/11/06 00:34:19;;;;;;;33.60;19.50;;;;;;;;;;1944106;74;26190;-80
2022/11/06 00:36:49;;;;;;;25.57;18.00;;;;;;;;;;1943869;74;26194;-79
2022/11/06 00:39:18;;;;;;;24.60;17.07;;;;;;;;;;1876849;75;27063;-79
2022/11/06 00:41:48;;;;;;;25.43;16.57;;;;;;;;;;1913372;75;26232;-79
2022/11/06 00:44:17;;;;;;;36.13;17.63;;;;;;;;;;1912358;75;26213;-79
2022/11/06 00:46:48;;;;;;;22.67;13.33;;;;;;;;;;1925735;74;26319;-79
2022/11/06 00:49:17;;;;;;;17.57;11.10;;;;;;;;;;1908583;74;26253;-79
2022/11/06 00:51:48;;;;;;;14.43;9.43;;;;;;;;;;1943847;74;26180;-79
2022/11/06 00:54:18;;;;;;;16.87;8.87;;;;;;;;;;1909970;74;26179;-79
2022/11/06 00:56:48;;;;;;;17.70;8.30;;;;;;;;;;1944215;74;26186;-79
2022/11/06 00:59:17;;;;;;;11.80;6.73;;;;;;;;;;1943945;74;26194;-79
2022/11/06 01:01:48;;;;;;;11.70;7.23;;;;;;;;;;1913315;75;26179;-78
2022/11/06 01:04:18;;;;;;;12.80;6.63;;;;;;;;;;1913554;73;26184;-79
2022/11/06 01:06:48;;;;;;;10.97;6.40;;;;;;;;;;1913310;73;26713;-79
2022/11/06 01:09:19;;;;;;;13.50;6.23;;;;;;;;;;1913420;73;26191;-79
2022/11/06 01:11:49;;;;;;;11.00;6.20;;;;;;;;;;1913396;73;26697;-79
2022/11/06 01:14:19;;;;;;;12.47;5.70;;;;;;;;;;1855071;75;26176;-79
2022/11/06 01:16:48;;;;;;;12.97;6.17;;;;;;;;;;1913380;75;26192;-79
2022/11/06 01:19:19;;;;;;;9.00;5.80;;;;;;;;;;1909502;74;26245;-79
2022/11/06 01:21:51;;;;;;;10.43;6.07;;;;;;;;;;1944122;74;26252;-79
2022/11/06 01:24:21;;;;;;;11.40;6.20;;;;;;;;;;1913428;75;26172;-79
2022/11/06 01:26:50;;;;;;;12.23;6.30;;;;;;;;;;1913262;75;26184;-78
2022/11/06 01:29:19;;;;;;;17.03;6.67;;;;;;;;;;1911864;73;26309;-79
2022/11/06 01:31:49;;;;;;;11.23;6.43;;;;;;;;;;1911390;73;26309;-79
2022/11/06 01:34:18;;;;;;;13.77;6.73;;;;;;;;;;1911712;73;26293;-78
2022/11/06 01:36:48;;;;;;;10.43;7.23;;;;;;;;;;1911666;73;26333;-79
2022/11/06 01:39:17;;;;;;;15.77;7.33;;;;;;;;;;1912872;73;26234;-78
2022/11/06 01:41:47;;;;;;;13.17;7.30;;;;;;;;;;1911571;73;26347;-79
2022/11/06 01:44:34;;;;;;;13.90;7.63;;;;;;;;;;1913458;74;26969;-79
2022/11/06 01:47:04;;;;;;;16.83;7.20;;;;;;;;;;1910086;74;26182;-79
2022/11/06 01:49:38;;;;;;;15.17;7.87;;;;;;;;;;1944195;74;26174;-79
2022/11/06 01:52:08;;;;;;;16.67;7.80;;;;;;;;;;1913609;75;26196;-79
2022/11/06 01:54:39;;;;;;;12.97;7.20;;;;;;;;;;1912573;75;26792;-79
2022/11/06 01:57:08;;;;;;;15.20;8.07;;;;;;;;;;1852740;75;26519;-79
2022/11/06 01:59:40;;;;;;;12.77;7.87;;;;;;;;;;1911785;73;26228;-79
2022/11/06 02:02:10;;;;;;;14.57;7.40;;;;;;;;;;1912236;75;26289;-80
2022/11/06 02:04:41;;;;;;;13.03;7.63;;;;;;;;;;1911746;73;26883;-78
2022/11/06 02:07:11;;;;;;;15.47;7.97;;;;;;;;;;1911341;73;26816;-79
2022/11/06 02:09:40;;;;;;;13.30;7.40;;;;;;;;;;1912820;73;26305;-79
2022/11/06 02:12:14;;;;;;;12.70;7.23;;;;;;;;;;1911526;73;26314;-79
2022/11/06 02:14:44;;;;;;;15.07;7.27;;;;;;;;;;1913425;73;26196;-79
2022/11/06 02:17:18;;;;;;;11.50;7.00;;;;;;;;;;1913323;73;26200;-79
2022/11/06 02:19:51;;;;;;;10.43;6.50;;;;;;;;;;1913347;75;26216;-79
2022/11/06 02:22:23;;;;;;;15.10;7.13;;;;;;;;;;1913394;75;26191;-79
2022/11/06 02:24:57;;;;;;;13.07;7.03;;;;;;;;;;1913470;75;26195;-79
2022/11/06 02:27:27;;;;;;;14.17;7.30;;;;;;;;;;1913329;73;26192;-78
2022/11/06 02:29:58;;;;;;;13.00;7.30;;;;;;;;;;1913386;73;26719;-79
2022/11/06 02:32:28;;;;;;;13.30;7.70;;;;;;;;;;1913359;75;26185;-78
2022/11/06 02:34:58;;;;;;;14.33;7.97;;;;;;;;;;1912638;75;27414;-79
2022/11/06 02:37:29;;;;;;;13.37;8.63;;;;;;;;;;1911218;73;26343;-78
2022/11/06 02:39:59;;;;;;;12.63;8.10;;;;;;;;;;1911413;73;26409;-78
2022/11/06 02:42:30;;;;;;;14.30;7.87;;;;;;;;;;1925528;74;26674;-78
2022/11/06 02:45:00;;;;;;;15.30;8.30;;;;;;;;;;1927411;74;26191;-79
2022/11/06 02:47:30;;;;;;;15.17;8.40;;;;;;;;;;1927524;74;26195;-78
2022/11/06 02:50:01;;;;;;;14.20;8.40;;;;;;;;;;1927455;74;26779;-79
2022/11/06 02:52:31;;;;;;;13.73;9.00;;;;;;;;;;1927556;74;26245;-79
2022/11/06 02:55:01;;;;;;;14.30;8.70;;;;;;;;;;1927380;74;26199;-78
2022/11/06 02:57:31;;;;;;;16.13;8.87;;;;;;;;;;1908493;75;26184;-78
2022/11/06 03:00:03;;;;;;;15.57;8.67;;;;;;;;;;1943943;74;26661;-79
2022/11/06 03:02:36;;;;;;;13.70;8.40;;;;;;;;;;1913260;75;26676;-79
2022/11/06 03:05:07;;;;;;;14.37;7.33;;;;;;;;;;1913365;74;26195;-79
2022/11/06 03:07:38;;;;;;;13.80;8.00;;;;;;;;;;1927427;74;27049;-78
2022/11/06 03:10:08;;;;;;;16.60;8.23;;;;;;;;;;1907921;75;26317;-79
2022/11/06 03:12:40;;;;;;;13.23;7.40;;;;;;;;;;1944010;73;26175;-79
2022/11/06 03:15:13;;;;;;;21.87;8.27;;;;;;;;;;1913273;75;26250;-79
2022/11/06 03:17:43;;;;;;;15.83;7.70;;;;;;;;;;1913522;73;26653;-79
2022/11/06 03:20:16;;;;;;;14.27;7.37;;;;;;;;;;1913254;75;26201;-80
2022/11/06 03:22:47;;;;;;;14.63;6.90;;;;;;;;;;1913386;75;26312;-78
2022/11/06 03:25:23;;;;;;;12.93;7.20;;;;;;;;;;1927318;74;26760;-79
2022/11/06 03:27:53;;;;;;;16.30;7.30;;;;;;;;;;1927284;74;26661;-79
2022/11/06 03:30:22;;;;;;;15.67;7.47;;;;;;;;;;1908567;75;26196;-79
2022/11/06 03:32:52;;;;;;;16.07;7.73;;;;;;;;;;1943903;73;26195;-79
2022/11/06 03:35:24;;;;;;;11.83;6.60;;;;;;;;;;1913065;75;26243;-79
2022/11/06 03:37:57;;;;;;;13.53;6.40;;;;;;;;;;1927383;74;26276;-78
2022/11/06 03:40:28;;;;;;;18.20;6.53;;;;;;;;;;1927237;74;26219;-79
2022/11/06 03:42:59;;;;;;;18.83;7.00;;;;;;;;;;1908655;75;26751;-79
2022/11/06 03:45:30;;;;;;;16.77;6.57;;;;;;;;;;1943955;73;26199;-79
2022/11/06 03:48:00;;;;;;;19.97;6.30;;;;;;;;;;1913279;75;26180;-79
2022/11/06 03:50:30;;;;;;;14.33;5.70;;;;;;;;;;1913332;73;26700;-79
2022/11/06 03:53:01;;;;;;;16.93;6.40;;;;;;;;;;1913260;73;26188;-78
2022/11/06 03:55:31;;;;;;;14.97;6.20;;;;;;;;;;1913301;73;26200;-79
2022/11/06 03:58:02;;;;;;;18.50;6.10;;;;;;;;;;1913301;75;26646;-79
2022/11/06 04:00:33;;;;;;;14.37;6.27;;;;;;;;;;1913302;73;26685;-79
2022/11/06 04:03:04;;;;;;;13.57;6.17;;;;;;;;;;1927452;74;26188;-79
2022/11/06 04:05:34;;;;;;;16.30;7.17;;;;;;;;;;1908655;75;26633;-79
2022/11/06 04:13:59;;;;;;;17.50;7.17;;;;;;;;;;1913646;75;26242;-79
2022/11/06 04:16:30;;;;;;;18.00;7.47;;;;;;;;;;1913435;73;26237;-79
2022/11/06 04:19:01;;;;;;;13.63;6.43;;;;;;;;;;1927429;74;26203;-79
2022/11/06 04:21:33;;;;;;;14.73;6.23;;;;;;;;;;1908397;75;26682;-79
2022/11/06 04:26:54;;;;;;;13.37;6.27;;;;;;;;;;1911464;75;26729;-78
2022/11/06 04:29:25;;;;;;;11.13;6.10;;;;;;;;;;1911544;73;26548;-79
2022/11/06 04:31:56;;;;;;;15.33;6.90;;;;;;;;;;1911378;75;26322;-78
2022/11/06 04:34:28;;;;;;;14.93;7.57;;;;;;;;;;1878447;75;26752;-80
2022/11/06 04:36:59;;;;;;;12.80;6.50;;;;;;;;;;1911379;75;27574;-79
2022/11/06 04:39:30;;;;;;;13.10;7.23;;;;;;;;;;1891753;74;26231;-79
2022/11/06 04:42:04;;;;;;;14.37;7.50;;;;;;;;;;1875530;75;26337;-79
2022/11/06 04:44:34;;;;;;;14.40;7.63;;;;;;;;;;1942818;74;26373;-79
2022/11/06 04:47:05;;;;;;;11.90;7.00;;;;;;;;;;1911247;75;26301;-79
2022/11/06 04:49:36;;;;;;;11.30;7.67;;;;;;;;;;1911743;74;27485;-79
2022/11/06 04:52:07;;;;;;;12.40;7.30;;;;;;;;;;1911473;75;26394;-79
2022/11/06 04:54:36;;;;;;;15.23;7.30;;;;;;;;;;1913212;75;26208;-79
2022/11/06 04:57:13;;;;;;;14.67;7.30;;;;;;;;;;1913554;74;26197;-78
2022/11/06 04:59:42;;;;;;;11.80;6.80;;;;;;;;;;1911695;73;26240;-79
2022/11/06 05:02:13;;;;;;;13.83;6.37;;;;;;;;;;1903408;73;612030;-80
2022/11/06 05:04:42;;;;;;;14.00;7.40;;;;;;;;;;1943045;74;26210;-79
2022/11/06 05:07:12;;;;;;;14.47;7.03;;;;;;;;;;1903566;74;26726;-79
2022/11/06 05:09:42;;;;;;;12.20;7.00;;;;;;;;;;1943814;72;26241;-79
2022/11/06 05:12:10;;;;;;;15.37;6.70;;;;;;;;;;1927026;74;26199;-79
2022/11/06 05:14:40;;;;;;;21.00;7.10;;;;;;;;;;1902947;75;26234;-79
2022/11/06 05:17:08;;;;;;;10.30;6.30;;;;;;;;;;1927061;74;26226;-79
2022/11/06 05:19:37;;;;;;;12.93;6.20;;;;;;;;;;1927073;74;26284;-79
2022/11/06 05:24:54;;;;;;;11.63;6.00;;;;;;;;;;1927067;74;26248;-78
2022/11/06 05:27:23;;;;;;;13.37;6.37;;;;;;;;;;1927346;74;26824;-78
2022/11/06 05:29:51;;;;;;;13.93;5.90;;;;;;;;;;1927580;74;26301;-78
2022/11/06 05:32:21;;;;;;;14.97;6.37;;;;;;;;;;1896074;74;26541;-78
2022/11/06 05:34:50;;;;;;;16.80;6.27;;;;;;;;;;1896336;74;26305;-78
2022/11/06 05:37:20;;;;;;;15.37;5.93;;;;;;;;;;1927040;74;26230;-78
2022/11/06 05:39:51;;;;;;;10.57;5.77;;;;;;;;;;1926886;74;26756;-78
2022/11/06 05:42:20;;;;;;;12.20;5.50;;;;;;;;;;1929112;74;26235;-78
2022/11/06 05:44:50;;;;;;;12.97;5.43;;;;;;;;;;1898077;74;26174;-78
2022/11/06 05:47:20;;;;;;;9.30;5.47;;;;;;;;;;1928977;74;26191;-78
2022/11/06 05:49:50;;;;;;;13.37;5.47;;;;;;;;;;1928212;74;27447;-79
2022/11/06 05:52:21;;;;;;;13.60;5.50;;;;;;;;;;1929139;74;26182;-79
2022/11/06 05:54:51;;;;;;;9.37;4.80;;;;;;;;;;1928171;74;26300;-79
2022/11/06 05:57:20;;;;;;;14.30;5.67;;;;;;;;;;1927157;74;26288;-79
2022/11/06 05:59:48;;;;;;;12.97;5.67;;;;;;;;;;1896312;74;26280;-79
2022/11/06 06:02:18;;;;;;;13.20;5.50;;;;;;;;;;1926998;74;26726;-79
2022/11/06 06:04:47;;;;;;;14.27;6.00;;;;;;;;;;1927239;74;26211;-79
2022/11/06 06:07:18;;;;;;;11.80;6.07;;;;;;;;;;1927099;74;27374;-79
2022/11/06 06:09:47;;;;;;;12.63;6.20;;;;;;;;;;1927141;72;26791;-79
2022/11/06 06:12:16;;;;;;;12.43;5.53;;;;;;;;;;1927196;74;26508;-79
2022/11/06 06:14:46;;;;;;;13.25;6.45;;;;;;;;;;1926987;74;26734;-79
2022/11/06 06:17:14;;;;;;;14.75;6.35;;;;;;;;;;1926887;74;26313;-79
2022/11/06 06:19:43;;;;;;;12.47;5.97;;;;;;;;;;1927264;74;26803;-79
2022/11/06 06:22:13;;;;;;;12.03;5.90;;;;;;;;;;1926995;74;26341;-78
2022/11/06 06:24:43;;;;;;;13.90;6.10;;;;;;;;;;1927001;74;26295;-79
2022/11/06 06:27:12;;;;;;;15.60;6.10;;;;;;;;;;1926925;74;26219;-79
2022/11/06 06:29:42;;;;;;;13.00;6.70;;;;;;;;;;1895938;74;26866;-81
2022/11/06 06:32:12;;;;;;;11.37;6.60;;;;;;;;;;1926783;74;26696;-80
2022/11/06 06:34:41;;;;;;;13.50;6.50;;;;;;;;;;1927344;74;26231;-80
2022/11/06 06:37:10;;;;;;;14.37;6.53;;;;;;;;;;1927008;74;26739;-80
2022/11/06 06:39:39;;;;;;;12.50;6.37;;;;;;;;;;1896654;74;26301;-79
2022/11/06 06:42:10;;;;;;;11.53;6.30;;;;;;;;;;1926869;74;26255;-79
2022/11/06 06:44:39;;;;;;;15.20;6.60;;;;;;;;;;1927185;74;26211;-80
2022/11/06 06:47:09;;;;;;;14.73;6.70;;;;;;;;;;1895533;74;26325;-80
2022/11/06 06:49:38;;;;;;;13.20;6.57;;;;;;;;;;1927407;74;26514;-79
2022/11/06 06:52:08;;;;;;;11.07;6.67;;;;;;;;;;1926768;74;26223;-80
2022/11/06 06:54:36;;;;;;;13.10;6.43;;;;;;;;;;1929254;74;26253;-79
2022/11/06 06:57:05;;;;;;;14.83;6.27;;;;;;;;;;1928920;74;26248;-80
2022/11/06 06:59:34;;;;;;;16.87;6.53;;;;;;;;;;1929051;74;26195;-78
2022/11/06 07:02:04;;;;;;;16.37;6.93;;;;;;;;;;1927381;74;26300;-80
2022/11/06 07:04:34;;;;;;;14.27;6.23;;;;;;;;;;1929303;74;26641;-79
2022/11/06 07:07:02;;;;;;;14.27;6.30;;;;;;;;;;1897159;74;26669;-79
2022/11/06 07:09:32;;;;;;;15.80;6.43;;;;;;;;;;1926981;72;26270;-79
2022/11/06 07:12:01;;;;;;;13.60;6.13;;;;;;;;;;1898609;74;26167;-79
2022/11/06 07:14:31;;;;;;;13.43;5.50;;;;;;;;;;1897331;74;26239;-80
2022/11/06 07:17:03;;;;;;;19.03;6.60;;;;;;;;;;1927177;74;26291;-80
2022/11/06 07:19:32;;;;;;;14.50;6.30;;;;;;;;;;1927214;74;26219;-81
2022/11/06 07:22:01;;;;;;;12.97;6.30;;;;;;;;;;1927027;74;26692;-80
2022/11/06 07:24:30;;;;;;;17.50;6.30;;;;;;;;;;1927563;74;26184;-81
2022/11/06 07:26:59;;;;;;;10.97;5.00;;;;;;;;;;1927370;74;26948;-82
2022/11/06 07:29:29;;;;;;;12.37;5.17;;;;;;;;;;1927887;74;26211;-81
2022/11/06 07:32:01;;;;;;;11.23;5.17;;;;;;;;;;1927568;74;26222;-82
2022/11/06 07:34:30;;;;;;;17.30;5.27;;;;;;;;;;1927703;74;26223;-82
2022/11/06 07:37:04;;;;;;;15.67;6.00;;;;;;;;;;1927268;74;26344;-82
2022/11/06 07:39:33;;;;;;;10.63;4.60;;;;;;;;;;1929201;74;26191;-82
2022/11/06 07:42:02;;;;;;;14.00;5.77;;;;;;;;;;1929012;74;26309;-81
2022/11/06 07:44:32;;;;;;;12.20;5.67;;;;;;;;;;1927862;74;26324;-81
2022/11/06 07:47:03;;;;;;;15.10;6.23;;;;;;;;;;1927698;74;26702;-81
2022/11/06 07:49:32;;;;;;;15.80;6.17;;;;;;;;;;1927890;74;26289;-81
2022/11/06 07:52:02;;;;;;;13.90;6.10;;;;;;;;;;1927446;74;26284;-81
2022/11/06 07:54:31;;;;;;;16.37;6.17;;;;;;;;;;1927765;74;26227;-82
2022/11/06 07:57:01;;;;;;;18.70;6.23;;;;;;;;;;1927309;74;26215;-81
2022/11/06 07:59:32;;;;;;;15.80;6.43;;;;;;;;;;1927793;74;26207;-81
2022/11/06 08:02:01;;;;;;;20.30;6.00;;;;;;;;;;1927895;74;26223;-81
2022/11/06 08:04:31;;;;;;;18.67;6.13;;;;;;;;;;1928531;74;26227;-81
2022/11/06 08:07:01;;;;;;;17.27;6.03;;;;;;;;;;1928702;74;26323;-80
2022/11/06 08:09:30;;;;;;;17.60;6.00;;;;;;;;;;1928608;74;26207;-80
2022/11/06 08:12:01;;;;;;;15.53;5.33;;;;;;;;;;1928788;72;26775;-81
2022/11/06 08:14:30;;;;;;;17.53;6.50;;;;;;;;;;1928929;74;26289;-80
2022/11/06 08:17:01;;;;;;;18.43;5.87;;;;;;;;;;1928290;74;26219;-81
2022/11/06 08:19:30;;;;;;;15.10;5.90;;;;;;;;;;1928530;74;26208;-81
2022/11/06 08:21:59;;;;;;;16.67;5.40;;;;;;;;;;1928688;74;26239;-80
2022/11/06 08:24:29;;;;;;;14.20;5.47;;;;;;;;;;1928525;74;26325;-79
2022/11/06 08:26:58;;;;;;;15.50;5.03;;;;;;;;;;1928264;74;26929;-80
2022/11/06 08:29:28;;;;;;;13.83;5.43;;;;;;;;;;1897686;74;26280;-80
2022/11/06 08:31:59;;;;;;;15.47;5.40;;;;;;;;;;1928919;74;26302;-80
2022/11/06 08:34:28;;;;;;;13.27;6.20;;;;;;;;;;1928927;74;26203;-80
2022/11/06 08:36:57;;;;;;;19.13;7.10;;;;;;;;;;1928312;74;26226;-80
2022/11/06 08:39:26;;;;;;;12.87;5.87;;;;;;;;;;1897661;74;26284;-80
2022/11/06 08:41:55;;;;;;;13.57;6.47;;;;;;;;;;1896629;74;26913;-80
2022/11/06 08:44:24;;;;;;;16.80;6.90;;;;;;;;;;1928060;74;26303;-80
2022/11/06 08:46:57;;;;;;;15.23;6.43;;;;;;;;;;1928275;74;26199;-79
2022/11/06 08:49:25;;;;;;;13.43;5.93;;;;;;;;;;1928366;74;26351;-79
2022/11/06 08:51:57;;;;;;;17.10;6.20;;;;;;;;;;1928620;74;26316;-79
2022/11/06 08:54:26;;;;;;;12.57;5.30;;;;;;;;;;1897243;74;26210;-80
2022/11/06 08:56:55;;;;;;;15.77;5.40;;;;;;;;;;1928381;74;26682;-80
2022/11/06 08:59:25;;;;;;;12.90;6.00;;;;;;;;;;1928589;74;26227;-79
2022/11/06 09:01:56;;;;;;;14.90;6.17;;;;;;;;;;1928330;74;26239;-80
2022/11/06 09:04:25;;;;;;;12.10;4.95;;;;;;;;;;1928462;74;26306;-80
2022/11/06 09:06:57;;;;;;;12.40;5.70;;;;;;;;;;1897623;74;26220;-80
2022/11/06 09:09:30;;;;;;;12.57;5.50;;;;;;;;;;1928428;74;27052;-80
2022/11/06 09:11:57;;;;;;;12.50;5.20;;;;;;;;;;1927874;74;26255;-80
2022/11/06 09:14:28;;;;;;;14.13;4.90;;;;;;;;;;1928518;74;26500;-81
2022/11/06 09:16:57;;;;;;;14.73;4.93;;;;;;;;;;1928418;74;26218;-80
2022/11/06 09:19:27;;;;;;;13.80;5.20;;;;;;;;;;1928690;74;26298;-80
2022/11/06 09:21:58;;;;;;;16.20;5.57;;;;;;;;;;1896935;74;26204;-80
2022/11/06 09:24:28;;;;;;;11.87;5.37;;;;;;;;;;1928623;74;26230;-80
2022/11/06 09:26:58;;;;;;;16.40;5.20;;;;;;;;;;1928209;74;26235;-80
2022/11/06 09:29:27;;;;;;;17.63;5.57;;;;;;;;;;1897612;74;26325;-80
2022/11/06 09:31:58;;;;;;;15.03;5.30;;;;;;;;;;1928483;74;26724;-79
2022/11/06 09:34:28;;;;;;;17.77;5.70;;;;;;;;;;1928633;74;26622;-80
2022/11/06 09:36:57;;;;;;;19.63;5.10;;;;;;;;;;1928397;74;26299;-80
2022/11/06 09:39:28;;;;;;;17.03;4.80;;;;;;;;;;1928588;74;26227;-80
2022/11/06 09:41:58;;;;;;;17.53;4.87;;;;;;;;;;1929219;74;26332;-80
2022/11/06 09:44:30;;;;;;;18.87;4.97;;;;;;;;;;1929044;74;26227;-80
2022/11/06 09:47:01;;;;;;;13.60;4.70;;;;;;;;;;1928696;74;26234;-81
2022/11/06 09:49:31;;;;;;;14.80;5.00;;;;;;;;;;1928109;74;26242;-81
2022/11/06 09:52:03;;;;;;;15.20;4.80;;;;;;;;;;1927842;74;26720;-80
2022/11/06 09:54:34;;;;;;;15.33;4.97;;;;;;;;;;1927520;74;26234;-80
2022/11/06 09:57:04;;;;;;;13.65;4.70;;;;;;;;;;1927531;74;26244;-81
2022/11/06 09:59:35;;;;;;;18.13;5.33;;;;;;;;;;1927791;74;26700;-81
2022/11/06 10:02:06;;;;;;;14.17;5.00;;;;;;;;;;1927650;74;26250;-81
2022/11/06 10:04:39;;;;;;;15.33;4.87;;;;;;;;;;1925822;74;26755;-80
2022/11/06 10:07:12;;;;;;;17.30;4.40;;;;;;;;;;1896584;74;26200;-80
2022/11/06 10:09:42;;;;;;;14.45;4.15;;;;;;;;;;1926645;74;26235;-80
2022/11/06 10:12:14;;;;;;;11.80;4.03;;;;;;;;;;1927509;74;26276;-80
2022/11/06 10:14:49;;;;;;;14.37;3.87;;;;;;;;;;1928919;74;26175;-80
2022/11/06 10:17:23;;;;;;;15.93;3.90;;;;;;;;;;1944095;74;24158;-81
2022/11/06 10:19:58;;;;;;;12.25;3.25;;;;;;;;;;1944237;73;26712;-80
2022/11/06 10:22:29;;;;;;;12.30;3.70;;;;;;;;;;1925487;74;27072;-80
2022/11/06 10:25:00;;;;;;;12.70;3.65;;;;;;;;;;1925639;74;26257;-80
2022/11/06 10:27:32;;;;;;;12.53;3.90;;;;;;;;;;1925402;74;26223;-81
2022/11/06 10:30:08;;;;;;;12.67;3.90;;;;;;;;;;1893739;74;26321;-81
2022/11/06 10:32:44;;;;;;;21.43;4.80;;;;;;;;;;1894418;74;26251;-81
2022/11/06 10:35:16;;;;;;;10.80;4.20;;;;;;;;;;1901999;75;26307;-80
2022/11/06 10:37:47;;;;;;;13.80;4.30;;;;;;;;;;1908190;74;26298;-81
2022/11/06 10:40:18;;;;;;;15.80;4.70;;;;;;;;;;1925888;74;26266;-81
2022/11/06 10:42:50;;;;;;;16.30;4.27;;;;;;;;;;1925243;74;26263;-80
2022/11/06 10:45:19;;;;;;;13.03;3.73;;;;;;;;;;1927187;74;26249;-80
2022/11/06 10:47:52;;;;;;;14.73;3.97;;;;;;;;;;1927212;74;26201;-80
2022/11/06 10:50:22;;;;;;;14.23;3.87;;;;;;;;;;1927018;74;26196;-80
2022/11/06 10:52:53;;;;;;;14.87;3.93;;;;;;;;;;1903653;75;26179;-80
2022/11/06 10:55:44;;;;;;;15.10;3.60;;;;;;;;;;1943730;74;26179;-80
2022/11/06 11:01:11;;;;;;;14.47;4.17;;;;;;;;;;2055153;69;27599;-80
2022/11/06 11:03:42;;;;;;;16.80;6.10;;;;;;;;;;2021923;71;26545;-81
2022/11/06 11:06:11;;;;;;;11.65;3.35;;;;;;;;;;2021704;71;26219;-80
2022/11/06 11:08:41;;;;;;;14.70;4.20;;;;;;;;;;2021669;71;26218;-81
2022/11/06 11:11:21;;;;;;;15.13;4.57;;;;;;;;;;2021565;71;26229;-81
2022/11/06 11:13:52;;;;;;;15.80;3.93;;;;;;;;;;2023276;71;26178;-80
2022/11/06 11:16:23;;;;;;;9.77;3.93;;;;;;;;;;2023257;71;26166;-81
2022/11/06 11:18:54;;;;;;;13.03;3.73;;;;;;;;;;1986941;71;26236;-80
2022/11/06 11:21:24;;;;;;;12.47;3.83;;;;;;;;;;1987475;71;27124;-81
2022/11/06 11:24:18;;;;;;;12.23;3.97;;;;;;;;;;2023285;71;26178;-81
2022/11/06 11:26:48;;;;;;;17.13;4.20;;;;;;;;;;1908009;74;26199;-80
2022/11/06 11:29:19;;;;;;;14.43;3.90;;;;;;;;;;1944221;74;26256;-81
2022/11/06 11:31:50;;;;;;;14.60;3.55;;;;;;;;;;1944005;74;24121;-81
2022/11/06 11:34:22;;;;;;;14.13;3.77;;;;;;;;;;1979454;72;24121;-81
2022/11/06 11:36:57;;;;;;;15.10;3.80;;;;;;;;;;1982881;72;24111;-80
2022/11/06 11:39:29;;;;;;;15.20;3.90;;;;;;;;;;1943126;74;26799;-80
2022/11/06 11:42:18;;;;;;;9.17;3.57;;;;;;;;;;1942395;72;27117;-81
2022/11/06 11:44:48;;;;;;;16.60;3.60;;;;;;;;;;1942843;72;26270;-80
2022/11/06 11:47:25;;;;;;;13.37;3.77;;;;;;;;;;1977714;72;26208;-82
2022/11/06 11:49:55;;;;;;;15.50;3.80;;;;;;;;;;1977641;72;26517;-82
2022/11/06 11:52:24;;;;;;;14.63;4.73;;;;;;;;;;1977752;72;24160;-82
2022/11/06 11:55:16;;;;;;;15.13;4.80;;;;;;;;;;1918038;74;24259;-82
2022/11/06 11:57:45;;;;;;;13.23;4.70;;;;;;;;;;1925268;74;24189;-82
2022/11/06 12:00:18;;;;;;;17.37;5.13;;;;;;;;;;1914568;74;26591;-83
2022/11/06 12:02:49;;;;;;;18.97;5.07;;;;;;;;;;1927295;74;26190;-83
2022/11/06 12:05:20;;;;;;;16.00;4.37;;;;;;;;;;1891104;74;26719;-82
2022/11/06 12:07:51;;;;;;;18.10;4.67;;;;;;;;;;1927891;74;26186;-83
2022/11/06 12:10:23;;;;;;;15.67;4.40;;;;;;;;;;1926542;74;26239;-82
2022/11/06 12:12:54;;;;;;;15.00;4.87;;;;;;;;;;1925552;74;26665;-83
2022/11/06 12:15:26;;;;;;;15.03;4.57;;;;;;;;;;1927043;74;26202;-83
2022/11/06 12:17:58;;;;;;;13.03;4.27;;;;;;;;;;1927769;74;26175;-83
2022/11/06 12:20:29;;;;;;;15.47;4.33;;;;;;;;;;1927685;74;26242;-84
2022/11/06 12:23:02;;;;;;;16.53;4.30;;;;;;;;;;1926374;74;26236;-83
2022/11/06 12:25:32;;;;;;;16.07;3.93;;;;;;;;;;1924971;74;26314;-82
2022/11/06 12:28:04;;;;;;;14.95;4.10;;;;;;;;;;1924967;74;26252;-90
2022/11/06 12:30:34;;;;;;;11.70;3.50;;;;;;;;;;1914395;74;26240;-85
2022/11/06 12:33:23;;;;;;;6.20;3.03;;;;;;;;;;1925996;74;26206;-80
2022/11/06 12:35:57;;;;;;;6.63;2.20;;;;;;;;;;1925967;74;26634;-80
2022/11/06 12:38:27;;;;;;;4.37;2.30;;;;;;;;;;1926090;74;26788;-80
2022/11/06 12:40:59;;;;;;;1.80;1.63;;;;;;;;;;1932159;73;26252;-79
2022/11/06 12:43:30;;;;;;;2.73;1.80;;;;;;;;;;1967318;73;26193;-79
2022/11/06 12:46:03;;;;;;;2.20;1.80;;;;;;;;;;1967378;73;26198;-79
2022/11/06 12:48:37;;;;;;;1.85;1.70;;;;;;;;;;1967456;73;26282;-78
2022/11/06 12:51:08;;;;;;;2.40;1.60;;;;;;;;;;1966978;73;26484;-78
2022/11/06 12:53:39;;;;;;;1.60;1.50;;;;;;;;;;1967286;73;26252;-79
2022/11/06 12:56:10;;;;;;;2.13;1.80;;;;;;;;;;1932400;73;26761;-79
2022/11/06 12:58:57;;;;;;;1.37;1.10;;;;;;;;;;1928828;74;26305;-79
2022/11/06 13:01:31;;;;;;;1.80;1.70;;;;;;;;;;1895438;75;26248;-79
2022/11/06 13:04:04;;;;;;;1.80;1.70;;;;;;;;;;1928813;74;26212;-80
2022/11/06 13:06:37;;;;;;;1.67;1.57;;;;;;;;;;1915983;75;26237;-79
2022/11/06 13:09:08;;;;;;;1.33;1.23;;;;;;;;;;1926467;74;26261;-79
2022/11/06 13:11:43;;;;;;;1.83;1.43;;;;;;;;;;1931186;74;26515;-79
2022/11/06 13:14:17;;;;;;;2.37;1.70;;;;;;;;;;1927369;74;26351;-80
2022/11/06 13:16:48;;;;;;;1.87;1.40;;;;;;;;;;1926751;74;26260;-79
2022/11/06 13:19:21;;;;;;;2.40;2.20;;;;;;;;;;1915668;75;26702;-79
2022/11/06 13:22:16;;;;;;;3.67;3.37;;;;;;;;;;1926880;74;26721;-78
2022/11/06 13:24:48;;;;;;;2.60;2.40;;;;;;;;;;1926605;74;26237;-79
2022/11/06 13:27:20;;;;;;;3.63;3.33;;;;;;;;;;1926661;74;26295;-79
2022/11/06 13:29:51;;;;;;;3.00;2.80;;;;;;;;;;1893167;74;26268;-79
2022/11/06 13:32:21;;;;;;;2.60;2.40;;;;;;;;;;1891925;76;26275;-78
2022/11/06 13:34:53;;;;;;;2.33;2.13;;;;;;;;;;1926976;74;26322;-78
2022/11/06 13:37:24;;;;;;;2.20;2.00;;;;;;;;;;1915068;75;26362;-78
2022/11/06 13:39:54;;;;;;;2.70;2.13;;;;;;;;;;1929510;74;26753;-78
2022/11/06 13:42:26;;;;;;;2.50;2.10;;;;;;;;;;1892707;74;26295;-78
2022/11/06 13:44:55;;;;;;;2.20;2.10;;;;;;;;;;1926946;74;26782;-78
2022/11/06 13:47:28;;;;;;;2.07;1.90;;;;;;;;;;1891556;76;26345;-78
2022/11/06 13:49:58;;;;;;;2.57;2.23;;;;;;;;;;1917025;75;26194;-78
2022/11/06 13:52:29;;;;;;;2.47;2.27;;;;;;;;;;1930629;73;26307;-78
2022/11/06 13:55:04;;;;;;;3.47;2.37;;;;;;;;;;1926622;73;26320;-78
2022/11/06 13:57:40;;;;;;;2.50;1.70;;;;;;;;;;1895633;75;26222;-78
2022/11/06 14:00:27;;;;;;;2.23;1.43;;;;;;;;;;1895689;75;26224;-78
2022/11/06 14:03:20;;;;;;;1.57;1.47;;;;;;;;;;1895752;75;26227;-78
2022/11/06 14:05:53;;;;;;;2.20;1.97;;;;;;;;;;1859056;75;26186;-78
2022/11/06 14:08:24;;;;;;;2.30;2.10;;;;;;;;;;1895822;75;26177;-78
2022/11/06 14:10:56;;;;;;;3.77;2.80;;;;;;;;;;1928628;74;26762;-78
2022/11/06 14:13:26;;;;;;;3.15;2.85;;;;;;;;;;1928684;74;26209;-79
2022/11/06 14:16:03;;;;;;;2.55;2.35;;;;;;;;;;1928803;74;26212;-78
2022/11/06 14:18:34;;;;;;;2.20;2.10;;;;;;;;;;1895759;75;26856;-78
2022/11/06 14:21:20;;;;;;;3.97;3.73;;;;;;;;;;1895561;75;26217;-79
2022/11/06 14:23:54;;;;;;;2.67;2.47;;;;;;;;;;1933104;74;26736;-79
2022/11/06 14:26:42;;;;;;;2.50;2.40;;;;;;;;;;1916906;75;26675;-78
2022/11/06 14:29:29;;;;;;;1.50;1.00;;;;;;;;;;1928688;74;26660;-79
2022/11/06 14:31:59;;;;;;;2.87;1.70;;;;;;;;;;1928705;74;26198;-79
2022/11/06 14:34:29;;;;;;;4.45;1.40;;;;;;;;;;1928939;74;26684;-78
2022/11/06 14:36:58;;;;;;;3.75;1.60;;;;;;;;;;1928790;74;26206;-78
2022/11/06 14:39:52;;;;;;;2.60;1.40;;;;;;;;;;1928752;74;26252;-77
2022/11/06 14:42:23;;;;;;;4.10;1.50;;;;;;;;;;1900945;74;26243;-78
2022/11/06 14:44:53;;;;;;;2.75;1.30;;;;;;;;;;1928537;74;26222;-78
2022/11/06 14:47:41;;;;;;;2.50;1.43;;;;;;;;;;1893791;75;26642;-78
2022/11/06 14:50:13;;;;;;;3.07;1.77;;;;;;;;;;1893701;75;26808;-78
2022/11/06 14:52:44;;;;;;;3.25;1.50;;;;;;;;;;1897781;74;27384;-78
2022/11/06 14:55:24;;;;;;;4.80;1.97;;;;;;;;;;1930672;73;26419;-78
2022/11/06 14:57:54;;;;;;;2.80;1.60;;;;;;;;;;1930984;74;26264;-78
2022/11/06 15:00:41;;;;;;;3.07;1.50;;;;;;;;;;1891881;76;27015;-78
2022/11/06 15:03:17;;;;;;;3.63;1.73;;;;;;;;;;1915180;75;26411;-78
2022/11/06 15:05:48;;;;;;;2.53;1.60;;;;;;;;;;1927304;74;27472;-79
2022/11/06 15:08:36;;;;;;;3.87;1.90;;;;;;;;;;1892160;74;26241;-76
2022/11/06 15:11:08;;;;;;;3.13;2.00;;;;;;;;;;1926641;74;26251;-78